Little River, SC

5:16 PM EDT on April 18, 2015 (GMT -0400)
Hidden Lakes Village | | Change Station
CLOSE
Current Station
Personal Weather Station
Location: Little River, SC
Elevation: 43 ft
Nearby Weather Stations

Elev 43 ft 33.88 °N, 78.63 °W | Updated 5 seconds ago

Overcast
Overcast
71.7 °F
Feels Like 71 °F
N
6.0
Wind Variable Wind from SE
Gusts 13.0 mph

Today
High -- | Low -- °F
--% Chance of Precip.
Yesterday
High -- | Low -- °F
Precip. -- in
6:40 AM 7:47 PM
New Moon, 0% visible
Pressure 29.95 in
Visibility 10.0 miles
Clouds Few 4300 ft
Heat Index 71 °F
Dew Point 67 °F
Humidity 84%
Rainfall 1.27 in
Snow Depth Not available.
UV 4 out of 12
Pollen 7.30 out of 12
Air Quality Not available.
Flu Activity Local Activity
METAR KCRE 182053Z 11006KT 10SM FEW043 22/18 A2995 RMK AO1 SLP142 60000 T02170183 56015

More Conditions Fewer Conditions

Pressure 29.95 in
Visibility 10.0 miles
Clouds Few 4300 ft
Heat Index 71 °F
Dew Point 67 °F
Humidity 84%
Rainfall 1.27 in
Snow Depth Not available.
UV 4 out of 12
Pollen 7.30 out of 12
Air Quality Not available.
Flu Activity Local Activity
METAR KCRE 182053Z 11006KT 10SM FEW043 22/18 A2995 RMK AO1 SLP142 60000 T02170183 56015

More Conditions Fewer Conditions

10-Day Weather Forecast

Almanac

Astronomy

Apr. 18, 2015 Rise Set
Actual Time
Civil Twilight
Nautical Twilight
Astronomical Twilight
Moon
Length of Visible Light
Length of Day
Tomorrow will be .
, % of the Moon is Illuminated

Today's Extremes

State Highs State Lows

Community

WunderPhotos

Upload Photos

1,814,532 photos uploaded!

WunderBlogs® & News

Nearby

Air Quality

  Air Quality AQ Index Pollutant
Not available.

Snow Depth

Station Depth Elevation

Earthquake Activity

City Distance Mag. Time & Date
Minimum magnitude displayed is 2.5.

Coastal Water Temperatures

Place Temperature

Stations

Nearby Weather Stations

Station Location Temp. Windchill Dew Point Humidity Wind Precip. Elev Updated Type